createdAt,value
2023-08-14T00:00:49.411Z,34.80
2023-08-14T00:03:18.091Z,34.80
2023-08-14T00:05:46.760Z,34.80
2023-08-14T00:08:15.484Z,34.70
2023-08-14T00:10:44.519Z,34.80
2023-08-14T00:13:13.575Z,34.70
2023-08-14T00:15:42.232Z,34.70
2023-08-14T00:18:10.752Z,34.70
2023-08-14T00:20:39.546Z,34.70
2023-08-14T00:23:08.167Z,34.50
2023-08-14T00:25:36.775Z,34.40
2023-08-14T00:28:05.550Z,34.50
2023-08-14T00:30:34.141Z,34.50
2023-08-14T00:33:02.770Z,34.40
2023-08-14T00:35:31.283Z,34.40
2023-08-14T00:37:59.896Z,34.40
2023-08-14T00:40:28.569Z,34.40
2023-08-14T00:42:57.028Z,34.40
2023-08-14T00:45:36.761Z,34.40
2023-08-14T00:48:13.143Z,34.30
2023-08-14T00:50:41.701Z,34.30
2023-08-14T00:53:10.872Z,34.20
2023-08-14T00:55:39.947Z,34.30
2023-08-14T00:58:08.834Z,34.20
2023-08-14T01:00:38.082Z,34.30
2023-08-14T01:03:08.226Z,34.20
2023-08-14T01:05:37.052Z,34.10
2023-08-14T01:08:05.795Z,34.10
2023-08-14T01:11:04.126Z,34.10
2023-08-14T01:13:57.180Z,34.10
2023-08-14T01:16:35.668Z,34.00
2023-08-14T01:19:11.516Z,34.00
2023-08-14T01:22:21.219Z,34.00
2023-08-14T01:25:01.691Z,33.90
2023-08-14T01:27:31.077Z,33.90
2023-08-14T01:30:00.836Z,33.90
2023-08-14T01:32:29.416Z,34.00
2023-08-14T01:34:58.364Z,33.90
2023-08-14T01:37:57.595Z,33.90
2023-08-14T01:40:26.124Z,33.90
2023-08-14T01:43:04.775Z,33.90
2023-08-14T01:45:36.524Z,33.80
2023-08-14T01:48:07.001Z,33.80
2023-08-14T01:50:36.708Z,33.70
2023-08-14T01:53:05.385Z,33.70
2023-08-14T01:55:33.897Z,33.70
2023-08-14T01:58:02.405Z,33.70
2023-08-14T02:00:33.912Z,33.70
2023-08-14T02:03:03.038Z,33.60
2023-08-14T02:05:31.595Z,33.50
2023-08-14T02:08:00.096Z,33.50
2023-08-14T02:10:28.818Z,33.50
2023-08-14T02:12:57.292Z,33.50
2023-08-14T02:15:25.871Z,33.40
2023-08-14T02:17:54.408Z,33.40
2023-08-14T02:20:22.950Z,33.50
2023-08-14T02:22:51.439Z,33.40
2023-08-14T02:25:20.028Z,33.40
2023-08-14T02:27:48.557Z,33.30
2023-08-14T02:30:17.079Z,33.30
2023-08-14T02:32:45.634Z,33.20
2023-08-14T02:35:14.442Z,33.10
2023-08-14T02:37:42.903Z,33.00
2023-08-14T02:40:11.738Z,33.00
2023-08-14T02:42:40.266Z,33.00
2023-08-14T02:45:09.486Z,32.90
2023-08-14T02:47:38.031Z,32.70
2023-08-14T02:50:07.180Z,32.60
2023-08-14T02:52:35.700Z,32.50
2023-08-14T02:55:04.231Z,32.40
2023-08-14T02:57:32.791Z,32.30
2023-08-14T03:00:01.280Z,32.20
2023-08-14T03:02:29.839Z,32.20
2023-08-14T03:04:58.410Z,32.00
2023-08-14T03:07:26.880Z,32.00
2023-08-14T03:09:55.806Z,31.80
2023-08-14T03:12:24.358Z,31.80
2023-08-14T03:14:52.883Z,31.50
2023-08-14T03:17:21.482Z,31.40
2023-08-14T03:19:50.128Z,31.30
2023-08-14T03:22:19.015Z,31.10
2023-08-14T03:24:47.702Z,31.10
2023-08-14T03:27:16.202Z,31.00
2023-08-14T03:29:44.698Z,30.90
2023-08-14T03:32:13.352Z,30.90
2023-08-14T03:34:41.849Z,30.70
2023-08-14T03:37:12.555Z,30.70
2023-08-14T03:39:41.258Z,30.60
2023-08-14T03:42:09.781Z,30.50
2023-08-14T03:44:38.446Z,30.40
2023-08-14T03:47:07.113Z,30.40
2023-08-14T03:49:35.612Z,30.30
2023-08-14T03:52:04.179Z,30.20
2023-08-14T03:54:32.750Z,30.10
2023-08-14T03:57:01.252Z,30.10
2023-08-14T03:59:29.788Z,29.90
2023-08-14T04:01:58.363Z,29.70
2023-08-14T04:04:26.869Z,29.60
2023-08-14T04:06:55.487Z,29.60
2023-08-14T04:09:24.015Z,29.50
2023-08-14T04:11:52.837Z,29.50
2023-08-14T04:14:21.339Z,29.40
2023-08-14T04:16:50.039Z,29.50
2023-08-14T04:19:21.010Z,29.40
2023-08-14T04:21:49.794Z,29.30
2023-08-14T04:24:18.563Z,29.20
2023-08-14T04:26:47.140Z,29.20
2023-08-14T04:29:17.422Z,29.10
2023-08-14T04:31:46.069Z,29.00
2023-08-14T04:34:14.606Z,28.90
2023-08-14T04:36:43.393Z,28.90
2023-08-14T04:39:11.966Z,28.90
2023-08-14T04:41:40.508Z,28.80
2023-08-14T04:44:09.025Z,28.80
2023-08-14T04:46:53.513Z,28.80
2023-08-14T04:49:27.592Z,28.70
2023-08-14T04:51:56.227Z,28.70
2023-08-14T04:54:25.304Z,28.70
2023-08-14T04:56:53.806Z,28.60
2023-08-14T04:59:22.311Z,28.50
2023-08-14T05:01:50.926Z,28.50
2023-08-14T05:04:19.604Z,28.50
2023-08-14T05:06:48.160Z,28.40
2023-08-14T05:09:26.367Z,28.30
2023-08-14T05:11:56.233Z,28.20
2023-08-14T05:14:24.830Z,28.10
2023-08-14T05:16:53.650Z,28.10
2023-08-14T05:19:22.465Z,28.00
2023-08-14T05:21:51.116Z,27.90
2023-08-14T05:24:20.138Z,27.90
2023-08-14T05:26:48.738Z,27.90
2023-08-14T05:29:17.404Z,27.80
2023-08-14T05:31:45.985Z,27.80
2023-08-14T05:34:14.504Z,27.70
2023-08-14T05:36:43.017Z,27.70
2023-08-14T05:39:11.560Z,27.60
2023-08-14T05:41:40.093Z,27.50
2023-08-14T05:44:08.707Z,27.50
2023-08-14T05:46:37.233Z,27.40
2023-08-14T05:49:06.708Z,27.40
2023-08-14T05:51:35.226Z,27.40
2023-08-14T05:54:03.778Z,27.30
2023-08-14T05:56:32.697Z,27.30
2023-08-14T05:59:01.201Z,27.20
2023-08-14T06:01:29.723Z,27.10
2023-08-14T06:03:58.284Z,27.00
2023-08-14T06:06:26.835Z,26.90
2023-08-14T06:08:56.785Z,26.90
2023-08-14T06:11:26.866Z,26.90
2023-08-14T06:13:55.436Z,26.80
2023-08-14T06:16:24.082Z,26.80
2023-08-14T06:18:54.506Z,26.70
2023-08-14T06:21:23.537Z,26.70
2023-08-14T06:23:53.134Z,26.60
2023-08-14T06:26:23.105Z,26.50
2023-08-14T06:28:51.662Z,26.50
2023-08-14T06:31:20.206Z,26.50
2023-08-14T06:33:51.864Z,26.50
2023-08-14T06:36:20.915Z,26.50
2023-08-14T06:38:50.045Z,26.40
2023-08-14T06:41:18.642Z,26.40
2023-08-14T06:43:47.297Z,26.30
2023-08-14T06:46:15.909Z,26.30
2023-08-14T06:48:44.478Z,26.30
2023-08-14T06:51:13.016Z,26.20
2023-08-14T06:53:41.629Z,26.20
2023-08-14T06:56:10.796Z,26.10
2023-08-14T06:58:39.300Z,26.10
2023-08-14T07:01:08.916Z,26.00
2023-08-14T07:03:37.575Z,26.00
2023-08-14T07:06:06.460Z,26.00
2023-08-14T07:08:34.983Z,25.90
2023-08-14T07:11:03.452Z,25.90
2023-08-14T07:13:32.086Z,25.90
2023-08-14T07:16:00.862Z,25.80
2023-08-14T07:18:29.457Z,25.80
2023-08-14T07:21:00.154Z,25.70
2023-08-14T07:23:28.670Z,25.70
2023-08-14T07:26:01.791Z,25.60
2023-08-14T07:28:30.260Z,25.60
2023-08-14T07:30:58.801Z,25.60
2023-08-14T07:33:27.305Z,25.50
2023-08-14T07:35:57.076Z,25.50
2023-08-14T07:38:25.758Z,25.40
2023-08-14T07:40:55.427Z,25.40
2023-08-14T07:43:26.689Z,25.30
2023-08-14T07:45:56.127Z,25.20
2023-08-14T07:48:24.662Z,25.20
2023-08-14T07:50:56.700Z,25.10
2023-08-14T07:53:25.249Z,24.90
2023-08-14T07:55:53.787Z,24.90
2023-08-14T07:58:22.256Z,24.90
2023-08-14T08:00:50.800Z,24.80
2023-08-14T08:03:19.321Z,24.80
2023-08-14T08:05:48.411Z,24.80
2023-08-14T08:08:16.899Z,24.70
2023-08-14T08:10:45.380Z,24.60
2023-08-14T08:13:13.866Z,24.60
2023-08-14T08:15:42.484Z,24.50
2023-08-14T08:18:11.162Z,24.50
2023-08-14T08:20:39.744Z,24.50
2023-08-14T08:23:08.306Z,24.40
2023-08-14T08:25:36.765Z,24.30
2023-08-14T08:28:05.494Z,24.30
2023-08-14T08:30:33.990Z,24.20
2023-08-14T08:33:04.095Z,24.20
2023-08-14T08:35:32.794Z,24.10
2023-08-14T08:38:01.311Z,24.00
2023-08-14T08:40:30.866Z,24.00
2023-08-14T08:43:02.229Z,23.90
2023-08-14T08:45:34.230Z,23.90
2023-08-14T08:48:04.379Z,23.80
2023-08-14T08:50:33.235Z,23.70
2023-08-14T08:53:02.178Z,23.70
2023-08-14T08:55:31.208Z,23.60
2023-08-14T08:58:00.445Z,23.50
2023-08-14T09:00:28.988Z,23.40
2023-08-14T09:02:57.531Z,23.40
2023-08-14T09:05:26.473Z,23.40
2023-08-14T09:07:55.021Z,23.30
2023-08-14T09:10:23.556Z,23.30
2023-08-14T09:12:52.080Z,23.20
2023-08-14T09:15:20.542Z,23.20
2023-08-14T09:17:49.095Z,23.20
2023-08-14T09:20:24.442Z,23.10
2023-08-14T09:23:01.087Z,23.10
2023-08-14T09:25:29.661Z,23.10
2023-08-14T09:27:58.582Z,23.10
2023-08-14T09:30:30.874Z,23.00
2023-08-14T09:32:59.491Z,22.90
2023-08-14T09:35:28.015Z,22.90
2023-08-14T09:37:56.540Z,22.90
2023-08-14T09:40:25.097Z,22.80
2023-08-14T09:42:55.001Z,22.70
2023-08-14T09:45:26.204Z,22.60
2023-08-14T09:48:05.796Z,22.60
2023-08-14T09:50:34.744Z,22.50
2023-08-14T09:53:04.086Z,22.50
2023-08-14T09:55:35.418Z,22.50
2023-08-14T09:58:03.930Z,22.40
2023-08-14T10:00:35.858Z,22.40
2023-08-14T10:03:09.279Z,22.30
2023-08-14T10:05:39.971Z,22.30
2023-08-14T10:08:10.759Z,22.20
2023-08-14T10:10:44.825Z,22.20
2023-08-14T10:13:18.189Z,22.10
2023-08-14T10:15:50.918Z,22.10
2023-08-14T10:18:21.261Z,22.10
2023-08-14T10:20:52.198Z,22.00
2023-08-14T10:23:21.550Z,22.00
2023-08-14T10:25:52.819Z,22.00
2023-08-14T10:28:22.696Z,22.00
2023-08-14T10:30:51.753Z,21.90
2023-08-14T10:33:21.041Z,21.90
2023-08-14T10:35:57.872Z,21.90
2023-08-14T10:38:48.599Z,21.80
2023-08-14T10:41:20.986Z,21.80
2023-08-14T10:43:55.593Z,21.70
2023-08-14T10:46:24.436Z,21.60
2023-08-14T10:48:54.846Z,21.60
2023-08-14T10:51:23.891Z,21.60
2023-08-14T10:54:10.246Z,21.50
2023-08-14T10:56:47.421Z,21.50
2023-08-14T10:59:30.210Z,21.50
2023-08-14T11:02:11.539Z,21.40
2023-08-14T11:05:03.446Z,21.40
2023-08-14T11:07:34.850Z,21.40
2023-08-14T11:10:06.757Z,21.40
2023-08-14T11:12:35.704Z,21.40
2023-08-14T11:15:04.330Z,21.30
2023-08-14T11:17:32.846Z,21.30
2023-08-14T11:20:03.253Z,21.30
2023-08-14T11:22:31.750Z,21.30
2023-08-14T11:25:00.271Z,21.20
2023-08-14T11:27:28.777Z,21.20
2023-08-14T11:30:00.401Z,21.10
2023-08-14T11:32:31.854Z,21.20
2023-08-14T11:35:00.479Z,21.10
2023-08-14T11:37:28.971Z,21.10
2023-08-14T11:39:57.417Z,21.10
2023-08-14T11:42:25.933Z,21.10
2023-08-14T11:44:54.364Z,21.00
2023-08-14T11:47:24.183Z,21.00
2023-08-14T11:49:52.897Z,21.00
2023-08-14T11:52:23.994Z,21.00
2023-08-14T11:54:53.052Z,21.00
2023-08-14T11:57:24.460Z,21.00
2023-08-14T11:59:53.498Z,21.10
2023-08-14T12:02:22.948Z,21.00
2023-08-14T12:05:03.069Z,21.00
2023-08-14T12:07:33.011Z,21.00
2023-08-14T12:10:01.982Z,20.90
2023-08-14T12:12:31.100Z,21.00
2023-08-14T12:15:01.220Z,20.90
2023-08-14T12:17:31.959Z,20.90
2023-08-14T12:20:05.859Z,20.90
2023-08-14T12:22:34.298Z,20.90
2023-08-14T12:25:06.686Z,20.90
2023-08-14T12:27:35.292Z,20.80
2023-08-14T12:30:04.715Z,20.80
2023-08-14T12:32:33.343Z,20.80
2023-08-14T12:35:01.934Z,20.80
2023-08-14T12:37:30.474Z,20.70
2023-08-14T12:39:58.991Z,20.70
2023-08-14T12:42:27.509Z,20.70
2023-08-14T12:44:56.018Z,20.70
2023-08-14T12:47:25.003Z,20.60
2023-08-14T12:49:54.337Z,20.60
2023-08-14T12:52:22.920Z,20.60
2023-08-14T12:55:04.675Z,20.60
2023-08-14T12:57:34.885Z,20.60
2023-08-14T13:00:04.645Z,20.60
2023-08-14T13:02:33.261Z,20.50
2023-08-14T13:05:01.827Z,20.50
2023-08-14T13:07:30.706Z,20.50
2023-08-14T13:09:59.278Z,20.40
2023-08-14T13:12:27.792Z,20.50
2023-08-14T13:14:56.506Z,20.40
2023-08-14T13:17:25.210Z,20.40
2023-08-14T13:19:55.563Z,20.40
2023-08-14T13:22:24.080Z,20.40
2023-08-14T13:24:52.627Z,20.40
2023-08-14T13:27:21.422Z,20.40
2023-08-14T13:29:50.199Z,20.30
2023-08-14T13:32:18.820Z,20.30
2023-08-14T13:34:47.495Z,20.30
2023-08-14T13:37:16.028Z,20.30
2023-08-14T13:39:45.726Z,20.30
2023-08-14T13:42:14.212Z,20.30
2023-08-14T13:44:42.711Z,20.30
2023-08-14T13:47:11.139Z,20.30
2023-08-14T13:49:40.234Z,20.30
2023-08-14T13:52:08.941Z,20.30
2023-08-14T13:54:37.387Z,20.40
2023-08-14T13:57:05.965Z,20.40
2023-08-14T13:59:34.464Z,20.40
2023-08-14T14:02:04.175Z,20.40
2023-08-14T14:04:32.829Z,20.50
2023-08-14T14:07:02.641Z,20.50
2023-08-14T14:09:31.264Z,20.60
2023-08-14T14:12:01.226Z,20.60
2023-08-14T14:14:29.704Z,20.60
2023-08-14T14:17:00.458Z,20.70
2023-08-14T14:19:30.510Z,20.80
2023-08-14T14:22:00.253Z,20.80
2023-08-14T14:24:30.744Z,20.90
2023-08-14T14:26:59.184Z,20.90
2023-08-14T14:29:27.860Z,21.00
2023-08-14T14:31:56.371Z,21.10
2023-08-14T14:34:26.106Z,21.20
2023-08-14T14:36:56.031Z,21.30
2023-08-14T14:39:24.603Z,21.50
2023-08-14T14:41:53.074Z,21.50
2023-08-14T14:44:21.578Z,21.60
2023-08-14T14:46:50.037Z,21.80
2023-08-14T14:49:18.549Z,21.80
2023-08-14T14:51:46.990Z,21.90
2023-08-14T14:54:15.519Z,22.00
2023-08-14T14:56:44.055Z,22.10
2023-08-14T14:59:12.500Z,22.10
2023-08-14T15:01:42.184Z,22.30
2023-08-14T15:04:10.727Z,22.30
2023-08-14T15:06:39.213Z,22.50
2023-08-14T15:09:08.998Z,22.50
2023-08-14T15:11:38.002Z,22.70
2023-08-14T15:14:06.597Z,22.70
2023-08-14T15:16:35.298Z,22.70
2023-08-14T15:19:03.805Z,22.80
2023-08-14T15:21:32.318Z,22.90
2023-08-14T15:24:00.760Z,23.00
2023-08-14T15:26:29.451Z,23.10
2023-08-14T15:28:57.895Z,23.10
2023-08-14T15:31:26.440Z,23.30
2023-08-14T15:33:55.025Z,23.30
2023-08-14T15:36:23.471Z,23.30
2023-08-14T15:38:51.945Z,23.40
2023-08-14T15:41:20.439Z,23.50
2023-08-14T15:43:48.897Z,23.60
2023-08-14T15:46:17.406Z,23.70
2023-08-14T15:48:46.788Z,23.70
2023-08-14T15:51:15.344Z,23.80
2023-08-14T15:53:43.822Z,23.90
2023-08-14T15:56:12.305Z,24.00
2023-08-14T15:58:42.094Z,24.10
2023-08-14T16:01:10.718Z,24.20
2023-08-14T16:03:39.350Z,24.30
2023-08-14T16:06:08.108Z,24.40
2023-08-14T16:08:36.688Z,24.50
2023-08-14T16:11:05.163Z,24.60
2023-08-14T16:13:34.522Z,24.60
2023-08-14T16:16:02.990Z,24.70
2023-08-14T16:18:31.470Z,24.80
2023-08-14T16:21:00.542Z,24.90
2023-08-14T16:23:29.221Z,25.00
2023-08-14T16:25:57.826Z,25.00
2023-08-14T16:28:26.375Z,25.10
2023-08-14T16:30:55.558Z,25.10
2023-08-14T16:33:24.164Z,25.20
2023-08-14T16:35:54.020Z,25.30
2023-08-14T16:38:22.490Z,25.40
2023-08-14T16:40:51.031Z,25.50
2023-08-14T16:43:19.581Z,25.60
2023-08-14T16:45:51.572Z,25.70
2023-08-14T16:48:20.037Z,25.70
2023-08-14T16:50:50.195Z,25.80
2023-08-14T16:53:18.704Z,25.90
2023-08-14T16:55:47.190Z,25.90
2023-08-14T16:58:15.777Z,26.00
2023-08-14T17:00:44.209Z,26.10
2023-08-14T17:03:12.770Z,26.20
2023-08-14T17:05:41.311Z,26.20
2023-08-14T17:08:09.804Z,26.40
2023-08-14T17:10:38.667Z,26.40
2023-08-14T17:13:07.321Z,26.50
2023-08-14T17:15:42.856Z,26.60
2023-08-14T17:18:11.342Z,26.70
2023-08-14T17:20:50.522Z,26.80
2023-08-14T17:23:22.155Z,26.80
2023-08-14T17:26:01.841Z,26.90
2023-08-14T17:28:30.725Z,26.90
2023-08-14T17:31:00.605Z,27.00
2023-08-14T17:33:31.874Z,27.10
2023-08-14T17:36:00.647Z,27.20
2023-08-14T17:38:29.166Z,27.30
2023-08-14T17:40:57.739Z,27.40
2023-08-14T17:43:26.191Z,27.50
2023-08-14T17:45:54.692Z,27.70
2023-08-14T17:48:23.173Z,27.90
2023-08-14T17:50:55.243Z,28.10
2023-08-14T17:53:24.196Z,28.10
2023-08-14T17:55:52.946Z,28.10
2023-08-14T17:58:22.378Z,28.10
2023-08-14T18:00:54.011Z,28.20
2023-08-14T18:03:26.052Z,28.30
2023-08-14T18:05:55.516Z,28.40
2023-08-14T18:08:24.253Z,28.50
2023-08-14T18:10:52.693Z,28.60
2023-08-14T18:13:22.017Z,28.70
2023-08-14T18:15:52.075Z,28.90
2023-08-14T18:18:20.727Z,29.00
2023-08-14T18:20:53.933Z,29.20
2023-08-14T18:23:23.113Z,29.30
2023-08-14T18:25:56.116Z,29.40
2023-08-14T18:28:25.225Z,29.50
2023-08-14T18:30:54.230Z,29.60
2023-08-14T18:33:22.728Z,29.80
2023-08-14T18:35:51.232Z,29.90
2023-08-14T18:38:19.698Z,30.20
2023-08-14T18:40:48.172Z,30.10
2023-08-14T18:43:16.695Z,30.20
2023-08-14T18:45:45.160Z,30.40
2023-08-14T18:48:13.925Z,30.50
2023-08-14T18:50:42.410Z,30.50
2023-08-14T18:53:11.537Z,30.50
2023-08-14T18:55:40.482Z,30.60
2023-08-14T18:58:09.346Z,30.70
2023-08-14T19:00:37.977Z,30.80
2023-08-14T19:03:06.804Z,30.90
2023-08-14T19:05:35.302Z,31.00
2023-08-14T19:08:05.717Z,31.10
2023-08-14T19:10:37.595Z,31.30
2023-08-14T19:13:06.368Z,31.40
2023-08-14T19:15:34.988Z,31.60
2023-08-14T19:18:04.004Z,31.60
2023-08-14T19:20:32.546Z,31.80
2023-08-14T19:23:00.975Z,31.90
2023-08-14T19:25:29.460Z,32.10
2023-08-14T19:28:00.200Z,32.20
2023-08-14T19:30:31.627Z,32.30
2023-08-14T19:33:00.145Z,32.40
2023-08-14T19:35:29.473Z,32.50
2023-08-14T19:37:57.912Z,32.60
2023-08-14T19:40:26.399Z,32.70
2023-08-14T19:42:54.872Z,32.90
2023-08-14T19:45:23.682Z,33.00
2023-08-14T19:47:52.268Z,33.20
2023-08-14T19:50:20.871Z,33.30
2023-08-14T19:52:49.296Z,33.30
2023-08-14T19:55:17.813Z,33.40
2023-08-14T19:57:46.330Z,33.50
2023-08-14T20:00:15.105Z,33.60
2023-08-14T20:02:43.559Z,33.90
2023-08-14T20:05:12.229Z,33.90
2023-08-14T20:07:40.647Z,34.00
2023-08-14T20:10:09.845Z,34.10
2023-08-14T20:12:38.319Z,34.20
2023-08-14T20:15:08.524Z,34.30
2023-08-14T20:17:37.211Z,34.40
2023-08-14T20:20:06.717Z,34.60
2023-08-14T20:22:35.195Z,34.80
2023-08-14T20:25:03.658Z,34.90
2023-08-14T20:27:32.072Z,35.10
2023-08-14T20:30:00.586Z,35.20
2023-08-14T20:32:29.058Z,35.50
2023-08-14T20:34:57.496Z,35.70
2023-08-14T20:37:25.994Z,35.90
2023-08-14T20:39:54.517Z,36.00
2023-08-14T20:42:26.087Z,36.10
2023-08-14T20:44:54.598Z,36.20
2023-08-14T20:47:23.112Z,36.40
2023-08-14T20:49:51.817Z,36.50
2023-08-14T20:52:24.008Z,36.60
2023-08-14T20:54:53.256Z,36.70
2023-08-14T20:57:22.767Z,36.90
2023-08-14T20:59:51.259Z,37.00
2023-08-14T21:02:20.038Z,37.30
2023-08-14T21:04:48.694Z,37.40
2023-08-14T21:07:17.526Z,37.50
2023-08-14T21:09:46.232Z,37.70
2023-08-14T21:12:14.829Z,38.00
2023-08-14T21:14:43.263Z,38.10
2023-08-14T21:17:11.778Z,38.20
2023-08-14T21:19:40.209Z,38.50
2023-08-14T21:22:08.779Z,38.80
2023-08-14T21:24:37.244Z,38.80
2023-08-14T21:27:05.770Z,39.00
2023-08-14T21:29:34.236Z,39.00
2023-08-14T21:32:02.687Z,39.20
2023-08-14T21:34:31.283Z,39.30
2023-08-14T21:36:59.794Z,39.40
2023-08-14T21:39:28.347Z,39.30
2023-08-14T21:41:56.782Z,39.20
2023-08-14T21:44:25.285Z,39.40
2023-08-14T21:46:53.697Z,39.40
2023-08-14T21:49:22.118Z,39.40
2023-08-14T21:51:50.654Z,39.20
2023-08-14T21:54:22.232Z,39.00
2023-08-14T21:56:50.735Z,39.00
2023-08-14T21:59:19.527Z,39.00
2023-08-14T22:01:49.546Z,39.00
2023-08-14T22:04:18.074Z,38.80
2023-08-14T22:06:46.615Z,38.80
2023-08-14T22:09:18.786Z,38.60
2023-08-14T22:11:54.047Z,38.60
2023-08-14T22:14:22.934Z,38.60
2023-08-14T22:16:52.240Z,38.50
2023-08-14T22:19:20.703Z,38.50
2023-08-14T22:21:49.123Z,38.50
2023-08-14T22:24:28.123Z,38.40
2023-08-14T22:27:06.663Z,38.40
2023-08-14T22:29:35.384Z,38.20
2023-08-14T22:32:03.877Z,38.10
2023-08-14T22:34:32.318Z,38.10
2023-08-14T22:37:00.877Z,38.10
2023-08-14T22:39:31.596Z,38.20
2023-08-14T22:42:00.537Z,38.20
2023-08-14T22:44:29.001Z,38.20
2023-08-14T22:46:57.428Z,38.20
2023-08-14T22:49:25.897Z,38.20
2023-08-14T22:51:54.337Z,38.10
2023-08-14T22:54:22.786Z,38.00
2023-08-14T22:56:51.207Z,38.10
2023-08-14T22:59:19.774Z,38.00
2023-08-14T23:01:48.209Z,38.10
2023-08-14T23:04:16.768Z,38.00
2023-08-14T23:06:45.361Z,38.00
2023-08-14T23:09:14.008Z,38.00
2023-08-14T23:11:42.908Z,38.00
2023-08-14T23:14:11.425Z,38.00
2023-08-14T23:16:40.118Z,37.90
2023-08-14T23:19:08.608Z,38.00
2023-08-14T23:21:37.143Z,37.90
2023-08-14T23:24:05.822Z,37.90
2023-08-14T23:26:34.253Z,37.90
2023-08-14T23:29:02.782Z,37.90
2023-08-14T23:31:31.268Z,37.80
2023-08-14T23:33:59.758Z,37.80
2023-08-14T23:36:28.254Z,37.80
2023-08-14T23:38:56.710Z,37.80
2023-08-14T23:41:25.157Z,37.70
2023-08-14T23:43:53.589Z,37.70
2023-08-14T23:46:22.048Z,37.80
2023-08-14T23:48:50.494Z,37.70
2023-08-14T23:51:18.931Z,37.80
2023-08-14T23:53:47.387Z,37.70
2023-08-14T23:56:15.857Z,37.60
2023-08-14T23:58:44.410Z,37.60
